createdAt,value
2017-05-28T00:00:30.441Z,70.44
2017-05-28T00:01:11.198Z,70.37
2017-05-28T00:01:51.941Z,70.67
2017-05-28T00:02:32.731Z,70.28
2017-05-28T00:03:13.664Z,70.76
2017-05-28T00:03:54.471Z,70.57
2017-05-28T00:04:35.291Z,70.47
2017-05-28T00:05:16.112Z,70.37
2017-05-28T00:05:56.873Z,70.18
2017-05-28T00:06:37.613Z,70.57
2017-05-28T00:07:18.355Z,70.37
2017-05-28T00:07:59.196Z,70.76
2017-05-28T00:08:40.001Z,70.28
2017-05-28T00:09:20.810Z,70.57
2017-05-28T00:10:01.580Z,70.57
2017-05-28T00:10:42.372Z,70.37
2017-05-28T00:11:23.125Z,70.28
2017-05-28T00:12:03.860Z,70.09
2017-05-28T00:12:44.625Z,70.37
2017-05-28T00:13:25.420Z,70.18
2017-05-28T00:14:06.200Z,70.47
2017-05-28T00:14:46.990Z,70.47
2017-05-28T00:15:27.687Z,70.57
2017-05-28T00:16:08.535Z,70.47
2017-05-28T00:16:49.359Z,70.37
2017-05-28T00:17:30.178Z,70.37
2017-05-28T00:18:10.985Z,69.89
2017-05-28T00:18:51.753Z,70.37
2017-05-28T00:19:32.520Z,70.18
2017-05-28T00:20:13.284Z,69.99
2017-05-28T00:20:54.143Z,69.99
2017-05-28T00:21:34.924Z,69.79
2017-05-28T00:22:15.641Z,69.7
2017-05-28T00:22:56.374Z,69.79
2017-05-28T00:23:37.130Z,69.7
2017-05-28T00:24:17.926Z,69.79
2017-05-28T00:24:58.731Z,69.89
2017-05-28T00:25:39.481Z,70.09
2017-05-28T00:26:20.226Z,69.6
2017-05-28T00:27:00.917Z,69.89
2017-05-28T00:27:41.789Z,69.7
2017-05-28T00:29:37.045Z,69.6
2017-05-28T00:30:17.792Z,69.41
2017-05-28T00:30:58.524Z,69.6
2017-05-28T00:31:39.359Z,69.79
2017-05-28T00:32:20.114Z,69.5
2017-05-28T00:33:00.949Z,70.57
2017-05-28T00:33:41.755Z,69.7
2017-05-28T00:34:22.564Z,69.79
2017-05-28T00:35:03.297Z,69.7
2017-05-28T00:35:44.013Z,69.99
2017-05-28T00:36:24.772Z,69.6
2017-05-28T00:37:05.598Z,69.99
2017-05-28T00:37:46.336Z,69.79
2017-05-28T00:38:27.154Z,70.09
2017-05-28T00:39:07.977Z,69.6
2017-05-28T00:39:48.676Z,69.7
2017-05-28T00:40:29.458Z,69.89
2017-05-28T00:41:10.276Z,69.7
2017-05-28T00:41:51.007Z,69.89
2017-05-28T00:42:31.819Z,69.7
2017-05-28T00:43:12.531Z,69.99
2017-05-28T00:43:53.374Z,69.79
2017-05-28T00:44:34.132Z,69.89
2017-05-28T00:45:14.980Z,69.7
2017-05-28T00:45:55.769Z,69.79
2017-05-28T00:46:36.579Z,69.6
2017-05-28T00:47:17.325Z,70.09
2017-05-28T00:47:58.085Z,69.31
2017-05-28T00:48:38.838Z,69.6
2017-05-28T00:49:19.663Z,69.89
2017-05-28T00:50:00.530Z,69.5
2017-05-28T00:50:41.363Z,69.31
2017-05-28T00:51:22.134Z,69.41
2017-05-28T00:52:02.918Z,69.5
2017-05-28T00:52:43.689Z,69.6
2017-05-28T00:53:24.403Z,68.92
2017-05-28T00:54:05.176Z,69.6
2017-05-28T00:54:46.007Z,69.5
2017-05-28T00:55:26.829Z,69.02
2017-05-28T00:56:07.585Z,69.02
2017-05-28T00:56:48.321Z,69.31
2017-05-28T00:57:29.132Z,69.21
2017-05-28T00:58:09.889Z,69.31
2017-05-28T00:58:57.379Z,69.41
2017-05-28T00:59:38.144Z,69.12
2017-05-28T01:00:18.948Z,69.31
2017-05-28T01:00:59.688Z,69.31
2017-05-28T01:01:40.578Z,69.99
2017-05-28T01:02:21.369Z,69.31
2017-05-28T01:03:02.134Z,69.21
2017-05-28T01:03:42.861Z,69.41
2017-05-28T01:04:23.624Z,69.02
2017-05-28T01:05:04.459Z,69.31
2017-05-28T01:05:45.309Z,69.31
2017-05-28T01:06:26.124Z,69.21
2017-05-28T01:07:06.915Z,69.79
2017-05-28T01:07:47.708Z,69.31
2017-05-28T01:08:28.442Z,69.5
2017-05-28T01:09:09.182Z,69.12
2017-05-28T01:09:50.001Z,69.21
2017-05-28T01:10:30.734Z,69.02
2017-05-28T01:11:11.544Z,69.5
2017-05-28T01:11:52.355Z,69.41
2017-05-28T01:12:33.114Z,69.31
2017-05-28T01:13:13.864Z,69.02
2017-05-28T01:13:54.653Z,69.12
2017-05-28T01:14:35.395Z,69.41
2017-05-28T01:15:16.190Z,69.02
2017-05-28T01:15:56.954Z,68.92
2017-05-28T01:16:37.724Z,69.31
2017-05-28T01:17:18.547Z,69.6
2017-05-28T01:17:59.364Z,68.92
2017-05-28T01:18:40.146Z,69.21
2017-05-28T01:19:20.925Z,69.21
2017-05-28T01:20:01.672Z,69.21
2017-05-28T01:20:42.530Z,69.31
2017-05-28T01:21:23.288Z,69.31
2017-05-28T01:22:03.997Z,68.82
2017-05-28T01:22:44.854Z,68.82
2017-05-28T01:23:25.593Z,69.12
2017-05-28T01:24:06.306Z,69.12
2017-05-28T01:24:47.127Z,69.02
2017-05-28T01:25:27.897Z,68.92
2017-05-28T01:26:08.712Z,69.41
2017-05-28T01:26:49.550Z,69.02
2017-05-28T01:27:30.352Z,69.5
2017-05-28T01:28:11.127Z,69.21
2017-05-28T01:28:51.832Z,69.5
2017-05-28T01:29:32.728Z,69.31
2017-05-28T01:30:13.533Z,69.02
2017-05-28T01:30:54.259Z,69.02
2017-05-28T01:31:34.985Z,68.92
2017-05-28T01:32:15.737Z,68.82
2017-05-28T01:32:56.547Z,69.31
2017-05-28T01:33:37.283Z,68.82
2017-05-28T01:34:18.035Z,69.12
2017-05-28T01:34:58.804Z,68.82
2017-05-28T01:35:39.619Z,68.92
2017-05-28T01:36:20.415Z,68.82
2017-05-28T01:37:01.152Z,68.73
2017-05-28T01:37:41.866Z,68.92
2017-05-28T01:38:22.666Z,68.54
2017-05-28T01:39:03.517Z,68.82
2017-05-28T01:39:44.288Z,69.12
2017-05-28T01:40:25.024Z,69.02
2017-05-28T01:41:05.886Z,68.82
2017-05-28T01:41:46.664Z,68.44
2017-05-28T01:42:27.431Z,68.54
2017-05-28T01:43:08.151Z,68.82
2017-05-28T01:43:49.033Z,68.92
2017-05-28T01:44:29.789Z,68.73
2017-05-28T01:45:10.680Z,68.73
2017-05-28T01:45:51.462Z,68.44
2017-05-28T01:46:32.290Z,68.82
2017-05-28T01:47:13.017Z,68.92
2017-05-28T01:47:53.813Z,68.92
2017-05-28T01:48:34.648Z,68.82
2017-05-28T01:49:15.568Z,68.82
2017-05-28T01:49:56.282Z,69.31
2017-05-28T01:50:37.036Z,68.54
2017-05-28T01:51:17.783Z,68.82
2017-05-28T01:51:58.578Z,69.02
2017-05-28T01:52:39.339Z,68.63
2017-05-28T01:53:20.097Z,68.73
2017-05-28T01:54:00.934Z,68.63
2017-05-28T01:54:41.852Z,68.44
2017-05-28T01:55:22.590Z,68.34
2017-05-28T01:56:03.429Z,68.54
2017-05-28T01:56:44.215Z,68.73
2017-05-28T01:57:24.982Z,68.54
2017-05-28T01:58:05.762Z,68.54
2017-05-28T02:00:20.915Z,68.54
2017-05-28T02:01:01.600Z,68.24
2017-05-28T02:01:42.340Z,68.24
2017-05-28T02:02:23.074Z,68.54
2017-05-28T02:03:03.874Z,68.63
2017-05-28T02:03:44.613Z,67.76
2017-05-28T02:04:25.412Z,68.54
2017-05-28T02:05:06.170Z,68.15
2017-05-28T02:05:46.981Z,68.54
2017-05-28T02:06:27.777Z,68.73
2017-05-28T02:07:08.658Z,68.24
2017-05-28T02:07:49.462Z,68.15
2017-05-28T02:08:30.194Z,68.54
2017-05-28T02:09:11.041Z,67.76
2017-05-28T02:09:51.819Z,67.85
2017-05-28T02:10:32.562Z,67.66
2017-05-28T02:11:13.317Z,67.95
2017-05-28T02:11:54.090Z,67.76
2017-05-28T02:12:34.843Z,67.47
2017-05-28T02:13:15.673Z,67.76
2017-05-28T02:13:56.415Z,67.66
2017-05-28T02:14:37.170Z,67.66
2017-05-28T02:15:18.052Z,67.76
2017-05-28T02:15:58.770Z,68.05
2017-05-28T02:16:39.573Z,67.57
2017-05-28T02:17:20.351Z,67.66
2017-05-28T02:18:01.078Z,67.76
2017-05-28T02:18:41.810Z,67.95
2017-05-28T02:19:22.592Z,67.95
2017-05-28T02:20:03.489Z,68.24
2017-05-28T02:20:44.236Z,68.05
2017-05-28T02:21:25.051Z,68.15
2017-05-28T02:22:05.833Z,68.44
2017-05-28T02:22:46.588Z,67.95
2017-05-28T02:23:27.340Z,67.76
2017-05-28T02:24:08.118Z,67.76
2017-05-28T02:24:48.940Z,68.44
2017-05-28T02:25:29.815Z,67.57
2017-05-28T02:26:13.927Z,68.15
2017-05-28T02:26:54.715Z,68.05
2017-05-28T02:27:37.939Z,68.44
2017-05-28T02:28:21.335Z,68.44
2017-05-28T02:29:02.914Z,68.73
2017-05-28T02:29:43.714Z,67.57
2017-05-28T02:30:25.518Z,68.44
2017-05-28T02:31:06.381Z,68.34
2017-05-28T02:31:47.157Z,68.05
2017-05-28T02:32:28.199Z,68.54
2017-05-28T02:33:09.058Z,67.66
2017-05-28T02:33:49.921Z,67.57
2017-05-28T02:34:30.726Z,67.47
2017-05-28T02:35:12.121Z,67.85
2017-05-28T02:35:53.027Z,67.47
2017-05-28T02:36:33.833Z,68.05
2017-05-28T02:37:14.643Z,67.85
2017-05-28T02:37:55.445Z,67.85
2017-05-28T02:38:38.928Z,67.85
2017-05-28T02:39:23.487Z,67.76
2017-05-28T02:40:07.954Z,67.76
2017-05-28T02:40:50.446Z,67.27
2017-05-28T02:41:33.665Z,67.47
2017-05-28T02:42:16.000Z,67.57
2017-05-28T02:43:00.106Z,67.47
2017-05-28T02:43:41.526Z,67.18
2017-05-28T02:44:27.494Z,67.76
2017-05-28T02:45:10.031Z,67.27
2017-05-28T02:45:54.370Z,67.57
2017-05-28T02:46:35.937Z,67.66
2017-05-28T02:47:16.788Z,67.47
2017-05-28T02:48:00.943Z,67.37
2017-05-28T02:48:42.449Z,67.57
2017-05-28T02:49:23.514Z,67.08
2017-05-28T02:50:06.602Z,67.47
2017-05-28T02:50:52.504Z,67.37
2017-05-28T02:51:36.312Z,66.89
2017-05-28T02:52:19.601Z,66.99
2017-05-28T02:53:01.952Z,67.27
2017-05-28T02:53:46.212Z,66.79
2017-05-28T02:54:30.566Z,66.79
2017-05-28T02:55:11.954Z,66.89
2017-05-28T02:55:55.935Z,66.79
2017-05-28T02:56:39.143Z,66.89
2017-05-28T02:57:21.627Z,66.5
2017-05-28T02:58:05.974Z,66.4
2017-05-28T02:58:47.539Z,66.69
2017-05-28T02:59:28.370Z,66.6
2017-05-28T03:00:12.484Z,66.5
2017-05-28T03:00:56.817Z,67.18
2017-05-28T03:01:40.120Z,66.99
2017-05-28T03:02:22.526Z,66.89
2017-05-28T03:03:06.614Z,66.79
2017-05-28T03:04:03.599Z,67.18
2017-05-28T03:04:47.889Z,66.4
2017-05-28T03:05:30.407Z,66.6
2017-05-28T03:06:16.573Z,66.4
2017-05-28T03:07:00.898Z,66.5
2017-05-28T03:07:42.493Z,66.79
2017-05-28T03:08:24.539Z,66.5
2017-05-28T03:09:05.555Z,66.3
2017-05-28T03:09:46.262Z,66.4
2017-05-28T03:10:27.113Z,66.5
2017-05-28T03:11:08.061Z,66.2
2017-05-28T03:11:48.995Z,66.2
2017-05-28T03:12:29.755Z,66.5
2017-05-28T03:13:10.602Z,66.4
2017-05-28T03:13:51.369Z,65.53
2017-05-28T03:14:32.240Z,66.6
2017-05-28T03:15:13.229Z,66.69
2017-05-28T03:15:54.735Z,66.4
2017-05-28T03:16:35.532Z,66.5
2017-05-28T03:17:16.494Z,66.69
2017-05-28T03:17:57.274Z,66.4
2017-05-28T03:18:38.811Z,66.4
2017-05-28T03:19:19.597Z,66.4
2017-05-28T03:20:00.395Z,66.11
2017-05-28T03:20:41.171Z,66.11
2017-05-28T03:21:22.033Z,66.2
2017-05-28T03:22:02.809Z,66.3
2017-05-28T03:22:43.603Z,66.2
2017-05-28T03:23:24.424Z,66.4
2017-05-28T03:24:05.248Z,66.4
2017-05-28T03:24:46.076Z,65.82
2017-05-28T03:25:26.888Z,66.4
2017-05-28T03:26:07.716Z,66.4
2017-05-28T03:26:48.488Z,66.11
2017-05-28T03:27:29.262Z,66.2
2017-05-28T03:28:10.076Z,66.4
2017-05-28T03:28:50.917Z,65.92
2017-05-28T03:29:31.702Z,66.02
2017-05-28T03:30:12.691Z,66.3
2017-05-28T03:30:53.589Z,65.53
2017-05-28T03:31:34.609Z,66.02
2017-05-28T03:32:15.501Z,65.82
2017-05-28T03:32:56.387Z,65.53
2017-05-28T03:33:37.380Z,65.53
2017-05-28T03:34:18.261Z,65.34
2017-05-28T03:34:59.222Z,65.92
2017-05-28T03:35:40.119Z,65.82
2017-05-28T03:36:20.945Z,65.82
2017-05-28T03:37:01.915Z,65.34
2017-05-28T03:37:42.854Z,65.43
2017-05-28T03:38:23.699Z,65.82
2017-05-28T03:39:04.576Z,66.02
2017-05-28T03:39:45.367Z,65.14
2017-05-28T03:40:26.297Z,65.63
2017-05-28T03:41:07.089Z,65.53
2017-05-28T03:41:47.893Z,65.43
2017-05-28T03:42:28.679Z,65.53
2017-05-28T03:43:09.427Z,65.24
2017-05-28T03:43:50.239Z,65.34
2017-05-28T03:44:31.082Z,65.53
2017-05-28T03:45:11.867Z,65.82
2017-05-28T03:45:52.635Z,65.34
2017-05-28T03:46:33.594Z,65.63
2017-05-28T03:47:14.450Z,65.63
2017-05-28T03:47:55.335Z,65.43
2017-05-28T03:48:36.170Z,65.05
2017-05-28T03:49:17.130Z,64.95
2017-05-28T03:49:57.967Z,65.63
2017-05-28T03:50:38.815Z,65.05
2017-05-28T03:51:19.674Z,65.14
2017-05-28T03:52:00.511Z,65.14
2017-05-28T03:52:41.364Z,65.14
2017-05-28T03:53:22.192Z,65.34
2017-05-28T03:54:03.193Z,65.53
2017-05-28T03:54:44.299Z,65.43
2017-05-28T03:55:25.122Z,64.85
2017-05-28T03:56:05.964Z,65.72
2017-05-28T03:56:46.768Z,64.85
2017-05-28T03:58:47.619Z,64.75
2017-05-28T03:59:28.565Z,65.05
2017-05-28T04:00:09.305Z,65.05
2017-05-28T04:00:50.075Z,64.75
2017-05-28T04:01:30.923Z,65.05
2017-05-28T04:02:11.801Z,64.95
2017-05-28T04:02:52.653Z,65.14
2017-05-28T04:03:33.474Z,65.43
2017-05-28T04:04:14.420Z,65.05
2017-05-28T04:04:55.306Z,64.95
2017-05-28T04:05:36.176Z,65.24
2017-05-28T04:06:17.128Z,64.95
2017-05-28T04:06:58.121Z,65.05
2017-05-28T04:07:38.914Z,64.95
2017-05-28T04:08:19.789Z,64.85
2017-05-28T04:09:00.799Z,64.85
2017-05-28T04:09:41.687Z,64.75
2017-05-28T04:10:22.474Z,65.14
2017-05-28T04:11:03.239Z,65.24
2017-05-28T04:11:44.186Z,65.05
2017-05-28T04:12:24.996Z,65.34
2017-05-28T04:13:05.829Z,65.24
2017-05-28T04:13:46.714Z,65.05
2017-05-28T04:14:27.534Z,65.14
2017-05-28T04:15:08.381Z,65.05
2017-05-28T04:15:49.328Z,65.14
2017-05-28T04:16:30.105Z,64.95
2017-05-28T04:17:10.937Z,64.75
2017-05-28T04:17:51.842Z,65.34
2017-05-28T04:18:33.303Z,65.14
2017-05-28T04:19:14.244Z,65.05
2017-05-28T04:19:55.046Z,65.05
2017-05-28T04:20:36.048Z,64.75
2017-05-28T04:21:16.827Z,64.75
2017-05-28T04:21:57.793Z,65.14
2017-05-28T04:22:38.559Z,65.24
2017-05-28T04:23:19.364Z,64.85
2017-05-28T04:24:00.123Z,65.05
2017-05-28T04:24:41.110Z,65.34
2017-05-28T04:25:22.189Z,64.95
2017-05-28T04:26:03.179Z,65.14
2017-05-28T04:26:43.991Z,64.85
2017-05-28T04:27:24.922Z,65.14
2017-05-28T04:28:06.317Z,64.95
2017-05-28T04:28:47.149Z,65.34
2017-05-28T04:29:28.243Z,64.85
2017-05-28T04:30:09.319Z,64.75
2017-05-28T04:30:50.088Z,65.14
2017-05-28T04:31:31.064Z,65.05
2017-05-28T04:32:11.825Z,65.14
2017-05-28T04:32:52.712Z,65.14
2017-05-28T04:33:33.469Z,65.24
2017-05-28T04:34:14.369Z,65.14
2017-05-28T04:34:55.128Z,65.34
2017-05-28T04:35:35.975Z,64.75
2017-05-28T04:36:16.737Z,65.34
2017-05-28T04:36:57.619Z,64.95
2017-05-28T04:37:38.604Z,65.14
2017-05-28T04:38:19.414Z,65.34
2017-05-28T04:39:00.345Z,65.05
2017-05-28T04:39:41.246Z,65.14
2017-05-28T04:40:22.083Z,64.95
2017-05-28T04:41:02.863Z,65.14
2017-05-28T04:41:43.695Z,65.14
2017-05-28T04:42:24.504Z,64.95
2017-05-28T04:43:05.445Z,65.14
2017-05-28T04:43:47.111Z,64.85
2017-05-28T04:44:27.920Z,65.24
2017-05-28T04:45:08.782Z,65.24
2017-05-28T04:45:49.724Z,64.75
2017-05-28T04:46:30.530Z,65.34
2017-05-28T04:47:11.324Z,65.05
2017-05-28T04:47:52.312Z,65.34
2017-05-28T04:48:33.196Z,65.14
2017-05-28T04:49:14.120Z,65.05
2017-05-28T04:49:55.050Z,65.14
2017-05-28T04:50:36.012Z,65.14
2017-05-28T04:51:16.947Z,64.95
2017-05-28T04:51:57.799Z,64.75
2017-05-28T04:52:38.599Z,65.34
2017-05-28T04:53:19.364Z,65.14
2017-05-28T04:54:00.072Z,65.14
2017-05-28T04:54:41.133Z,64.85
2017-05-28T04:55:22.116Z,65.34
2017-05-28T04:56:03.078Z,65.34
2017-05-28T04:56:44.074Z,65.24
2017-05-28T04:57:24.877Z,65.34
2017-05-28T04:58:20.739Z,65.14
2017-05-28T04:59:01.695Z,65.24
2017-05-28T04:59:42.546Z,65.17
2017-05-28T05:00:23.532Z,64.98
2017-05-28T05:01:04.415Z,64.5
2017-05-28T05:01:45.448Z,64.78
2017-05-28T05:02:26.472Z,64.69
2017-05-28T05:03:07.290Z,64.2
2017-05-28T05:03:48.105Z,64.78
2017-05-28T05:04:28.900Z,64.2
2017-05-28T05:05:09.842Z,64.2
2017-05-28T05:05:50.775Z,64.4
2017-05-28T05:06:31.587Z,63.95
2017-05-28T05:07:12.407Z,63.95
2017-05-28T05:07:53.225Z,63.36
2017-05-28T05:08:34.092Z,62.81
2017-05-28T05:09:15.031Z,61.94
2017-05-28T05:09:55.840Z,61.58
2017-05-28T05:10:36.706Z,60.8
2017-05-28T05:11:17.653Z,60.44
2017-05-28T05:11:58.515Z,59.86
2017-05-28T05:12:40.432Z,59.59
2017-05-28T05:13:21.239Z,59.14
2017-05-28T05:14:02.171Z,58.26
2017-05-28T05:14:43.133Z,57.59
2017-05-28T05:15:23.944Z,57.49
2017-05-28T05:16:04.679Z,57.71
2017-05-28T05:16:45.497Z,57.32
2017-05-28T05:17:27.083Z,56.93
2017-05-28T05:18:07.910Z,56.37
2017-05-28T05:18:48.713Z,56.09
2017-05-28T05:19:29.519Z,55.62
2017-05-28T05:20:10.324Z,55.43
2017-05-28T05:20:51.152Z,55.13
2017-05-28T05:21:31.941Z,55.33
2017-05-28T05:22:12.781Z,55.43
2017-05-28T05:22:53.623Z,54.75
2017-05-28T05:23:34.609Z,54.94
2017-05-28T05:24:15.400Z,54.94
2017-05-28T05:24:56.250Z,54.65
2017-05-28T05:25:37.124Z,54.38
2017-05-28T05:26:17.905Z,54.38
2017-05-28T05:26:58.712Z,54.28
2017-05-28T05:27:39.507Z,54.58
2017-05-28T05:28:23.927Z,54.28
2017-05-28T05:29:04.706Z,54.28
2017-05-28T05:29:45.786Z,53.99
2017-05-28T05:30:26.591Z,53.63
2017-05-28T05:31:07.484Z,53.14
2017-05-28T05:31:48.438Z,52.85
2017-05-28T05:32:29.247Z,52.56
2017-05-28T05:33:10.053Z,52.39
2017-05-28T05:33:50.976Z,51.61
2017-05-28T05:34:31.802Z,51.8
2017-05-28T05:35:12.603Z,51.82
2017-05-28T05:35:53.501Z,51.61
2017-05-28T05:36:34.245Z,51.7
2017-05-28T05:37:15.130Z,52.66
2017-05-28T05:37:55.836Z,53.21
2017-05-28T05:38:36.671Z,54.75
2017-05-28T05:39:17.613Z,55.69
2017-05-28T05:39:58.436Z,56.54
2017-05-28T05:40:39.315Z,57.32
2017-05-28T05:41:20.198Z,57.59
2017-05-28T05:42:01.056Z,58.07
2017-05-28T05:42:41.840Z,58.26
2017-05-28T05:43:22.730Z,58.26
2017-05-28T05:44:03.576Z,58.46
2017-05-28T05:44:44.469Z,58.85
2017-05-28T05:45:25.312Z,58.65
2017-05-28T05:46:06.310Z,58.65
2017-05-28T05:46:47.112Z,58.65
2017-05-28T05:47:27.940Z,58.65
2017-05-28T05:48:08.826Z,58.65
2017-05-28T05:48:49.608Z,58.85
2017-05-28T05:49:30.571Z,58.46
2017-05-28T05:50:11.428Z,58.26
2017-05-28T05:50:52.404Z,58.26
2017-05-28T05:51:33.348Z,58.46
2017-05-28T05:52:14.157Z,58.33
2017-05-28T05:52:54.962Z,58.46
2017-05-28T05:53:35.797Z,58.46
2017-05-28T05:54:16.645Z,58.56
2017-05-28T05:54:57.615Z,58.33
2017-05-28T05:55:38.371Z,58.65
2017-05-28T05:56:19.233Z,58.46
2017-05-28T05:57:00.387Z,58.82
2017-05-28T05:57:41.226Z,58.43
2017-05-28T05:59:56.670Z,58.85
2017-05-28T06:00:37.551Z,58.72
2017-05-28T06:01:18.389Z,59.11
2017-05-28T06:01:59.133Z,58.92
2017-05-28T06:02:40.099Z,58.82
2017-05-28T06:03:21.054Z,59.01
2017-05-28T06:04:02.996Z,59.11
2017-05-28T06:04:43.814Z,59.41
2017-05-28T06:05:24.611Z,59.31
2017-05-28T06:06:05.499Z,59.31
2017-05-28T06:06:46.246Z,59.01
2017-05-28T06:07:27.119Z,59.21
2017-05-28T06:08:07.886Z,59.43
2017-05-28T06:08:48.694Z,59.21
2017-05-28T06:09:30.113Z,59.41
2017-05-28T06:10:11.245Z,59.14
2017-05-28T06:10:52.213Z,58.75
2017-05-28T06:11:33.120Z,58.36
2017-05-28T06:12:14.021Z,58.36
2017-05-28T06:12:54.839Z,58.56
2017-05-28T06:13:35.673Z,58.56
2017-05-28T06:14:16.690Z,58.26
2017-05-28T06:14:57.523Z,58.26
2017-05-28T06:15:38.548Z,58.56
2017-05-28T06:16:19.516Z,58.26
2017-05-28T06:17:00.260Z,58.36
2017-05-28T06:17:41.128Z,58.17
2017-05-28T06:18:22.103Z,58.36
2017-05-28T06:19:02.883Z,58.2
2017-05-28T06:19:43.713Z,58.07
2017-05-28T06:20:24.798Z,58.07
2017-05-28T06:21:05.644Z,58.1
2017-05-28T06:21:46.476Z,58.26
2017-05-28T06:22:27.267Z,58
2017-05-28T06:23:08.353Z,57.71
2017-05-28T06:23:49.225Z,57.9
2017-05-28T06:24:30.003Z,57.51
2017-05-28T06:25:10.832Z,57.81
2017-05-28T06:25:51.882Z,57.9
2017-05-28T06:26:32.705Z,57.51
2017-05-28T06:27:13.542Z,57.35
2017-05-28T06:27:54.386Z,57.06
2017-05-28T06:28:35.162Z,56.86
2017-05-28T06:29:22.945Z,56.76
2017-05-28T06:30:03.864Z,57.06
2017-05-28T06:30:44.861Z,57.15
2017-05-28T06:31:25.662Z,57.25
2017-05-28T06:32:06.514Z,56.96
2017-05-28T06:32:47.268Z,57.15
2017-05-28T06:33:28.195Z,56.27
2017-05-28T06:34:09.010Z,56.47
2017-05-28T06:34:49.837Z,56.37
2017-05-28T06:35:30.789Z,56.57
2017-05-28T06:36:11.576Z,56.57
2017-05-28T06:36:52.432Z,55.79
2017-05-28T06:37:33.363Z,56.09
2017-05-28T06:38:14.216Z,56.18
2017-05-28T06:38:54.953Z,56.18
2017-05-28T06:39:35.906Z,55.6
2017-05-28T06:40:16.749Z,55.69
2017-05-28T06:40:57.578Z,55.62
2017-05-28T06:41:38.378Z,55.62
2017-05-28T06:42:19.200Z,55.52
2017-05-28T06:43:00.064Z,55.43
2017-05-28T06:43:40.845Z,54.94
2017-05-28T06:44:21.706Z,55.72
2017-05-28T06:45:02.552Z,54.94
2017-05-28T06:45:43.403Z,54.94
2017-05-28T06:46:24.362Z,54.94
2017-05-28T06:47:05.163Z,54.94
2017-05-28T06:47:46.097Z,54.65
2017-05-28T06:48:26.963Z,54.94
2017-05-28T06:49:07.914Z,54.36
2017-05-28T06:49:48.847Z,54.55
2017-05-28T06:50:29.700Z,54.46
2017-05-28T06:51:10.468Z,54.36
2017-05-28T06:51:51.356Z,53.97
2017-05-28T06:52:32.133Z,54.19
2017-05-28T06:53:12.998Z,54.09
2017-05-28T06:53:53.884Z,54.38
2017-05-28T06:54:35.003Z,54.19
2017-05-28T06:55:15.822Z,54.28
2017-05-28T06:55:56.590Z,54.09
2017-05-28T06:56:37.545Z,54.19
2017-05-28T06:57:18.356Z,54.48
2017-05-28T06:57:59.201Z,54.38
2017-05-28T06:58:39.946Z,54.19
2017-05-28T06:59:21.060Z,54.48
2017-05-28T07:00:02.448Z,54.19
2017-05-28T07:00:43.282Z,54.19
2017-05-28T07:01:24.130Z,54.48
2017-05-28T07:02:04.971Z,54.19
2017-05-28T07:02:45.922Z,54.19
2017-05-28T07:03:26.724Z,53.99
2017-05-28T07:04:09.140Z,54.19
2017-05-28T07:04:49.952Z,54.09
2017-05-28T07:05:30.941Z,54.28
2017-05-28T07:06:11.715Z,54.09
2017-05-28T07:06:52.593Z,54.41
2017-05-28T07:07:33.447Z,53.73
2017-05-28T07:08:14.216Z,53.24
2017-05-28T07:08:55.067Z,53.6
2017-05-28T07:09:36.012Z,53.5
2017-05-28T07:10:16.936Z,53.73
2017-05-28T07:10:57.740Z,53.73
2017-05-28T07:11:38.553Z,53.63
2017-05-28T07:12:19.325Z,53.53
2017-05-28T07:13:00.120Z,53.92
2017-05-28T07:13:40.922Z,53.05
2017-05-28T07:14:22.014Z,53.05
2017-05-28T07:15:03.187Z,53.24
2017-05-28T07:15:44.067Z,52.95
2017-05-28T07:16:24.893Z,53.34
2017-05-28T07:17:05.656Z,52.85
2017-05-28T07:17:46.547Z,52.95
2017-05-28T07:18:27.372Z,52.85
2017-05-28T07:19:08.146Z,53.05
2017-05-28T07:19:49.069Z,52.75
2017-05-28T07:20:29.891Z,53.34
2017-05-28T07:21:10.732Z,53.05
2017-05-28T07:21:51.605Z,52.95
2017-05-28T07:22:32.696Z,52.95
2017-05-28T07:23:13.791Z,52.95
2017-05-28T07:23:55.362Z,52.75
2017-05-28T07:24:36.201Z,52.95
2017-05-28T07:25:17.089Z,53.05
2017-05-28T07:25:57.947Z,52.95
2017-05-28T07:26:38.808Z,52.75
2017-05-28T07:27:19.679Z,52.85
2017-05-28T07:28:00.466Z,52.46
2017-05-28T07:28:41.525Z,52.56
2017-05-28T07:29:37.065Z,52.36
2017-05-28T07:30:18.523Z,52.29
2017-05-28T07:30:59.443Z,52.68
2017-05-28T07:31:40.467Z,52.48
2017-05-28T07:32:21.407Z,52.09
2017-05-28T07:33:02.367Z,51.61
2017-05-28T07:33:43.214Z,51.61
2017-05-28T07:34:24.164Z,51.61
2017-05-28T07:35:05.172Z,51.61
2017-05-28T07:35:46.253Z,51.7
2017-05-28T07:36:27.070Z,50.92
2017-05-28T07:37:07.905Z,51.8
2017-05-28T07:37:48.843Z,51.9
2017-05-28T07:38:29.645Z,51.31
2017-05-28T07:39:10.708Z,51.51
2017-05-28T07:39:51.528Z,51.41
2017-05-28T07:40:32.325Z,51.8
2017-05-28T07:41:13.082Z,51.8
2017-05-28T07:41:53.911Z,51.41
2017-05-28T07:42:34.823Z,51.51
2017-05-28T07:43:15.699Z,51.51
2017-05-28T07:43:56.705Z,51.21
2017-05-28T07:44:37.499Z,51.21
2017-05-28T07:45:18.508Z,50.82
2017-05-28T07:45:59.409Z,50.92
2017-05-28T07:46:41.115Z,50.82
2017-05-28T07:47:22.834Z,50.26
2017-05-28T07:48:03.608Z,50.75
2017-05-28T07:48:44.555Z,50.46
2017-05-28T07:49:25.363Z,50.36
2017-05-28T07:50:06.322Z,50.36
2017-05-28T07:50:47.219Z,50.16
2017-05-28T07:51:28.097Z,50.07
2017-05-28T07:52:08.923Z,50.46
2017-05-28T07:52:49.790Z,50.26
2017-05-28T07:53:30.623Z,50.07
2017-05-28T07:54:11.516Z,50.36
2017-05-28T07:54:52.361Z,49.98
2017-05-28T07:55:33.202Z,50.07
2017-05-28T07:56:14.072Z,50.36
2017-05-28T07:56:54.880Z,50.46
2017-05-28T07:57:35.677Z,49.78
2017-05-28T07:58:16.557Z,49.88
2017-05-28T07:58:57.407Z,49.58
2017-05-28T07:59:45.959Z,49.98
2017-05-28T08:00:26.838Z,49.88
2017-05-28T08:01:07.572Z,49.32
2017-05-28T08:01:49.171Z,49.61
2017-05-28T08:02:30.127Z,49.32
2017-05-28T08:03:10.938Z,49.32
2017-05-28T08:03:51.875Z,49.32
2017-05-28T08:04:32.743Z,49.29
2017-05-28T08:05:13.678Z,49.12
2017-05-28T08:05:54.584Z,49.12
2017-05-28T08:06:35.451Z,49.02
2017-05-28T08:07:16.327Z,48.83
2017-05-28T08:07:57.172Z,48.93
2017-05-28T08:08:38.144Z,48.73
2017-05-28T08:09:19.236Z,48.54
2017-05-28T08:10:00.056Z,49.12
2017-05-28T08:10:41.007Z,48.54
2017-05-28T08:11:22.035Z,48.83
2017-05-28T08:12:02.872Z,48.54
2017-05-28T08:12:43.765Z,48.44
2017-05-28T08:13:24.622Z,48.34
2017-05-28T08:14:05.578Z,48.54
2017-05-28T08:14:46.404Z,48.34
2017-05-28T08:15:27.230Z,48.54
2017-05-28T08:16:08.006Z,48.34
2017-05-28T08:16:48.996Z,48.34
2017-05-28T08:17:29.845Z,47.66
2017-05-28T08:18:10.712Z,48.44
2017-05-28T08:18:51.484Z,47.75
2017-05-28T08:19:32.341Z,48.05
2017-05-28T08:20:13.209Z,47.17
2017-05-28T08:20:54.082Z,48.34
2017-05-28T08:21:35.021Z,47.66
2017-05-28T08:22:15.980Z,48.05
2017-05-28T08:22:56.770Z,47.66
2017-05-28T08:23:37.767Z,47.66
2017-05-28T08:24:18.716Z,47.36
2017-05-28T08:24:59.628Z,47.17
2017-05-28T08:25:40.471Z,47.46
2017-05-28T08:26:21.268Z,47.56
2017-05-28T08:27:02.155Z,47.17
2017-05-28T08:27:43.768Z,47.17
2017-05-28T08:28:24.670Z,47.27
2017-05-28T08:29:05.574Z,47.46
2017-05-28T08:29:53.153Z,47.27
2017-05-28T08:30:34.123Z,47.07
2017-05-28T08:31:15.217Z,47.17
2017-05-28T08:31:56.166Z,46.97
2017-05-28T08:32:37.227Z,46.48
2017-05-28T08:33:18.025Z,46.48
2017-05-28T08:33:58.872Z,46.48
2017-05-28T08:34:39.864Z,46.8
2017-05-28T08:35:20.702Z,46.68
2017-05-28T08:36:01.467Z,46.78
2017-05-28T08:36:42.227Z,46.58
2017-05-28T08:37:23.009Z,46.58
2017-05-28T08:38:03.920Z,46.78
2017-05-28T08:38:44.810Z,46.58
2017-05-28T08:39:25.794Z,46.68
2017-05-28T08:40:06.995Z,46.58
2017-05-28T08:40:47.993Z,46.58
2017-05-28T08:41:28.928Z,46.68
2017-05-28T08:42:09.715Z,46.68
2017-05-28T08:42:50.512Z,46.58
2017-05-28T08:43:31.379Z,46.97
2017-05-28T08:44:12.212Z,47.07
2017-05-28T08:46:33.007Z,46.97
2017-05-28T08:47:13.863Z,47.27
2017-05-28T08:47:55.638Z,47.46
2017-05-28T08:48:52.068Z,47.17
2017-05-28T08:49:35.616Z,47.07
2017-05-28T08:50:19.539Z,47.27
2017-05-28T08:51:14.931Z,47.66
2017-05-28T08:51:55.752Z,48.05
2017-05-28T08:52:39.541Z,48.14
2017-05-28T08:53:22.528Z,48.54
2017-05-28T08:54:06.592Z,47.95
2017-05-28T08:54:52.579Z,47.66
2017-05-28T08:55:37.324Z,48.54
2017-05-28T08:56:35.139Z,48.54
2017-05-28T08:57:20.038Z,49.68
2017-05-28T08:58:03.919Z,50.63
2017-05-28T08:58:45.536Z,50.82
2017-05-28T08:59:26.386Z,51.02
2017-05-28T09:00:10.575Z,50.36